Kezdőlap
METAR-TAF:

METAR-TAF

Repülőterek :

Viña del Mar, Chile

földrajzi szélesség: 32-56-59S, földrajzi hosszúság: 71-28-43W, magasság: 141 m

Jelenlegi meteorológiai megfigyelések

A jelentés 57 perccel ezelõtt készült, 06:00 UTC
Dél-délkeleti szél 5 kt
Hőmérséklet 7°C
Páratartalom 70%
Légköri nyomás 1018 hPa
Látótávolság 10 km, vagy több
felhőtlen 1500 m magasságban, és nincs gomolyfelhõ

METAR: SCVM 250600Z 15005KT CAVOK 07/02 Q1018

Idő: 02:57 (06:57 UTC)


TAF: hiányzik

Meteorológiai megfigyelések és előrejelzések több, mint 4000 repülőtéren (METAR és TAF jelentéseket).

A térképen piros és sárga pontok jelzik az elérhető meteorológiai állomásokat.

Mozgassa az egeret a pont fölött, hogy megjelenjen az állomás neve.

Azután kattintson az időjárási megfigyelések és előrejelzések megtekintéséhez.

A térkép megváltoztatása: kattintson a fekete keresztel jelölt zöld gombra ráközelítéshez, a vonallal jelölt zöld gombra távolításhoz, vagy a zöld nyilakra a szomszédos térképek eléréséhez.


METAR-TAF: